Decatur Airport
KDEC : now visible

Airfield :











YOU CAN JOIN US ON...

 
LOGIN :

Register | Disclaimer

   EN    FR    IT 

 









Legend :    VFR   Marginal VFR   IFR   Intensive IFR   Very Intensive IFR
Visi :
Ceiling :
>= 8 km
>= 3000ft
5 to 8 km
1000 to 3000 ft
1500m to 5 km
500 to 1000 ft
800 to 1500m
200 to 500 ft
< 800m
< 200 ft
Symbols :   Thunderstorms  Fog  Heavy snow  Heavy precipitations  Wind > 20 kt






- Airport Elevation : 682 ft
- IATA code : DEC


KDEC - Decatur

CURRENT METAR :
  • 190908Z AUTO 33009KT 8SM -RA SCT041 BKN075 OVC090 21/19 A2989 RMK AO2 LTG DSNT ALQDS TSE02 P0002 T02060194

EXPIRED METARs :
  • 190854Z AUTO 36009KT 9SM -TSRA FEW043 SCT065 OVC075 21/19 A2989 RMK AO2 PK WND 33040/0820 WSHFT 0817 LTG DSNT ALQDS RAB0756 TSB0755E11B17 SLP116 P0040 60040 T02060194 53023
  • 190837Z AUTO 36016G31KT 5SM -TSRA BR FEW018 BKN035 OVC065 21/19 A2991 RMK AO2 PK WND 33040/0820 WSHFT 0817 LTG DSNT ALQDS RAB0756 TSB0755E11B17 P0034 T02060194
  • 190824Z AUTO 34026G40KT 3SM +TSRA BR SCT020 BKN031 OVC038 23/21 A2989 RMK AO2 PK WND 33040/0820 LTG DSNT ALQDS RAB0756 TSB0755E11B17 P0028 T02280211
  • 190816Z AUTO 25007G15KT 160V330 1 1/2SM VCTS +RA SCT024 OVC034 24/21 A2985 RMK AO2 LTG DSNT NW-E RAB0756 TSB0755E11 P0023 T02390211
  • 190801Z AUTO 31010KT 10SM -TSRA OVC032 26/22 A2984 RMK AO2 LTG DSNT ALQDS RAB0756 TSB0755 P0000 T02610217
  • 190754Z AUTO 30007KT 10SM BKN034 OVC050 26/22 A2984 RMK AO2 LTG DSNT N AND NW SLP094 T02610217
  • 190654Z AUTO 21004KT 10SM FEW055 24/22 A2981 RMK AO2 LTG DSNT N AND NW SLP086 T02440222

TAF KDEC
Valid from the 19 at 09:00 until the 20 at 06:00 UTC


190832Z 1909/2006 33014G32KT 3SM TSRA BR FEW020 BKN035CB
FM191200 23009KT 6SM -SHRA BR VCTS SCT050CB BKN100
FM191500 23010G18KT P6SM BKN050
FM200000 24008KT P6SM BKN150
KZKC FIR / North America



MET'MAP, your aeronautical weather chart ! - Copyright ORBIFLY December 2007 - Disclaimer

ORBIFLY MET'MAP TEAM :

Programming & Development : Alexandra Zaïnal
Concept & original design : Baudouin d'Aumeries
Assistance for programming : Marc-Olivier Méhu
Technical & hardware support : Manuel Goepfert

Contact : metmap@orbifly.com




SOURCES & CREDITS :

   NOAA       Earth
Advisory